Time;durP1;ratioP1;P1;durP2;ratioP2;P2;SDS_P1;SDS_P2;PMS_P1;PMS_P2;Temp;Humidity;BMP_temperature;BMP_pressure;BME280_temperature;BME280_humidity;BME280_pressure;Samples;Min_cycle;Max_cycle;Signal;HPM_P1;HPM_P2
2022/08/18 00:00:51;;;;;;;16.00;13.40;;;;;;;19.71;83.69;99838.44;130370;1268;108823;-76
2022/08/18 00:03:56;;;;;;;16.10;13.30;;;;;;;19.70;83.89;99845.40;130369;1268;108918;-76
2022/08/18 00:07:01;;;;;;;13.90;12.30;;;;;;;19.70;83.91;99849.10;130434;1267;108919;-76
2022/08/18 00:10:09;;;;;;;14.50;12.10;;;;;;;19.67;83.87;99846.75;130372;1268;107704;-76
2022/08/18 00:13:14;;;;;;;15.10;11.80;;;;;;;19.63;83.94;99851.45;130348;1268;109117;-76
2022/08/18 00:16:20;;;;;;;13.80;12.40;;;;;;;19.60;83.84;99854.11;130359;1268;109039;-77
2022/08/18 00:19:26;;;;;;;14.50;13.00;;;;;;;19.54;83.97;99857.95;130369;1268;108696;-77
2022/08/18 00:22:31;;;;;;;13.70;12.30;;;;;;;19.47;83.69;99872.65;130291;1268;108656;-76
2022/08/18 00:25:37;;;;;;;12.00;10.90;;;;;;;19.35;83.91;99881.71;130254;1268;108814;-76
2022/08/18 00:28:42;;;;;;;13.30;11.90;;;;;;;19.27;84.12;99882.85;130369;1268;108969;-76
2022/08/18 00:31:47;;;;;;;13.50;12.10;;;;;;;19.31;84.20;99878.83;130409;1268;108716;-76
2022/08/18 00:34:53;;;;;;;14.10;12.70;;;;;;;19.30;83.76;99883.45;130463;1268;108878;-76
2022/08/18 00:38:01;;;;;;;15.20;13.30;;;;;;;19.21;83.77;99886.30;130369;1268;108713;-76
2022/08/18 00:41:07;;;;;;;13.30;11.90;;;;;;;19.20;84.20;99887.77;130373;1268;107718;-75
2022/08/18 00:44:15;;;;;;;13.10;11.70;;;;;;;19.16;84.08;99891.98;130332;1268;107004;-75
2022/08/18 00:47:20;;;;;;;12.40;11.20;;;;;;;19.17;84.30;99892.16;130396;1268;107019;-76
2022/08/18 00:50:31;;;;;;;14.80;13.20;;;;;;;19.21;84.21;99891.95;130376;1268;108973;-75
2022/08/18 00:53:42;;;;;;;14.90;13.30;;;;;;;19.23;84.43;99894.03;130368;1268;108571;-75
2022/08/18 00:56:51;;;;;;;13.10;11.80;;;;;;;19.17;84.18;99891.66;130443;1268;108875;-77
2022/08/18 01:00:09;;;;;;;12.90;11.50;;;;;;;19.10;84.24;99896.94;130405;1268;106919;-76
2022/08/18 01:03:17;;;;;;;14.50;13.00;;;;;;;19.11;84.50;99898.27;130481;1268;108713;-77
2022/08/18 01:06:31;;;;;;;15.10;13.20;;;;;;;19.14;84.71;99893.58;130483;1268;108854;-77
2022/08/18 01:09:36;;;;;;;15.00;13.50;;;;;;;19.14;84.74;99892.05;130452;1268;108921;-76
2022/08/18 01:12:42;;;;;;;12.90;11.40;;;;;;;19.12;84.74;99888.31;130452;1268;108880;-76
2022/08/18 01:15:48;;;;;;;13.70;10.70;;;;;;;19.12;84.65;99883.98;130487;1268;108859;-75
2022/08/18 01:22:22;;;;;;;13.50;12.10;;;;;;;19.09;84.71;99899.11;130474;1268;108942;-76
2022/08/18 01:28:51;;;;;;;14.30;12.70;;;;;;;19.06;84.51;99901.18;130282;1268;109624;-76
2022/08/18 01:31:57;;;;;;;15.20;11.20;;;;;;;19.01;84.58;99899.40;130369;1268;108700;-76
2022/08/18 01:35:03;;;;;;;15.50;12.60;;;;;;;18.94;84.69;99897.26;130486;1268;108964;-75
2022/08/18 01:38:08;;;;;;;14.20;12.70;;;;;;;18.95;84.69;99898.70;130500;1268;108652;-78
2022/08/18 01:41:14;;;;;;;13.60;12.20;;;;;;;18.97;84.90;99899.27;130713;1268;108681;-78
2022/08/18 01:44:19;;;;;;;12.40;11.10;;;;;;;18.99;84.83;99896.61;130620;1268;108987;-77
2022/08/18 01:47:25;;;;;;;11.90;10.70;;;;;;;19.02;84.83;99890.12;130615;1268;108781;-80
2022/08/18 01:50:33;;;;;;;12.60;11.30;;;;;;;19.02;84.72;99892.16;130708;1268;108783;-79
2022/08/18 01:53:38;;;;;;;12.30;11.10;;;;;;;19.03;84.70;99887.95;130758;1268;107174;-78
2022/08/18 01:56:44;;;;;;;14.00;12.50;;;;;;;19.05;84.57;99886.86;130718;1268;107815;-78
2022/08/18 01:59:50;;;;;;;13.90;11.70;;;;;;;19.06;84.51;99890.10;130719;1267;108482;-79
2022/08/18 02:03:01;;;;;;;13.50;11.10;;;;;;;19.08;84.38;99893.63;130681;1268;108738;-80
2022/08/18 02:06:11;;;;;;;13.10;11.80;;;;;;;19.08;84.35;99893.75;130712;1268;108634;-76
2022/08/18 02:09:16;;;;;;;15.30;11.90;;;;;;;19.10;84.34;99898.48;130675;1268;108925;-77
2022/08/18 02:12:22;;;;;;;13.20;11.50;;;;;;;19.13;84.18;99901.63;130546;1268;108725;-77
2022/08/18 02:15:27;;;;;;;15.00;12.90;;;;;;;19.12;84.10;99900.52;130366;1268;108885;-77
2022/08/18 02:18:35;;;;;;;14.00;12.20;;;;;;;19.09;84.23;99899.98;130421;1268;107663;-77
2022/08/18 02:21:41;;;;;;;14.60;12.10;;;;;;;19.05;84.20;99895.30;130372;1268;108963;-76
2022/08/18 02:24:47;;;;;;;13.90;12.10;;;;;;;19.02;84.13;99893.70;130419;1268;108705;-77
2022/08/18 02:27:53;;;;;;;12.50;11.10;;;;;;;19.02;84.13;99893.29;130403;1268;108797;-77
2022/08/18 02:31:03;;;;;;;13.80;11.60;;;;;;;19.04;83.94;99887.34;130404;1268;108896;-77
2022/08/18 02:34:08;;;;;;;15.40;11.50;;;;;;;19.03;83.85;99886.58;130336;1268;108709;-77
2022/08/18 02:37:13;;;;;;;12.50;11.20;;;;;;;18.95;83.67;99886.30;130513;1268;109726;-77
2022/08/18 02:40:20;;;;;;;11.40;10.10;;;;;;;18.92;84.05;99891.17;130562;1268;108860;-77
2022/08/18 02:43:26;;;;;;;13.20;10.90;;;;;;;18.93;83.95;99889.55;130508;1268;108911;-76
2022/08/18 02:46:31;;;;;;;14.40;11.60;;;;;;;18.93;83.94;99889.86;130403;1268;108732;-76
2022/08/18 02:49:37;;;;;;;12.60;11.30;;;;;;;18.82;83.66;99885.36;130356;1267;107599;-76
2022/08/18 02:52:43;;;;;;;13.40;12.10;;;;;;;18.73;83.66;99885.52;130338;1268;108877;-77
2022/08/18 02:55:48;;;;;;;12.80;11.50;;;;;;;18.64;83.84;99894.38;130410;1268;108065;-80
2022/08/18 02:58:57;;;;;;;13.60;11.00;;;;;;;18.56;83.88;99894.79;130477;1267;109182;-75
2022/08/18 03:02:02;;;;;;;12.90;11.60;;;;;;;18.50;84.11;99893.48;130446;1267;109192;-76
2022/08/18 03:05:09;;;;;;;13.00;11.60;;;;;;;18.49;84.07;99899.92;130894;1267;109024;-78
2022/08/18 03:08:14;;;;;;;15.30;13.60;;;;;;;18.50;84.20;99901.26;130154;1267;108701;-75
2022/08/18 03:11:23;;;;;;;15.20;13.70;;;;;;;18.44;84.03;99904.51;130227;1268;108798;-75
2022/08/18 03:14:29;;;;;;;13.40;12.00;;;;;;;18.39;84.29;99900.71;130365;1267;109712;-75
2022/08/18 03:17:36;;;;;;;12.00;10.80;;;;;;;18.37;84.24;99897.77;130335;1267;108862;-75
2022/08/18 03:20:44;;;;;;;14.80;13.10;;;;;;;18.37;84.12;99897.34;130621;1267;108864;-76
2022/08/18 03:23:51;;;;;;;13.90;12.50;;;;;;;18.34;84.29;99898.45;130369;1268;107755;-76
2022/08/18 03:26:57;;;;;;;14.40;13.00;;;;;;;18.31;84.24;99901.40;130341;1267;108359;-76
2022/08/18 03:30:03;;;;;;;15.70;12.50;;;;;;;18.29;84.36;99900.70;130325;1268;108763;-75
2022/08/18 03:33:08;;;;;;;15.90;12.20;;;;;;;18.28;84.40;99899.41;130363;1267;108791;-75
2022/08/18 03:36:16;;;;;;;15.00;13.40;;;;;;;18.28;84.50;99899.24;130349;1268;108855;-75
2022/08/18 03:39:23;;;;;;;15.50;13.90;;;;;;;18.29;84.42;99904.10;130374;1268;108429;-75
2022/08/18 03:42:29;;;;;;;14.90;13.40;;;;;;;18.31;84.44;99909.79;130398;1268;109097;-75
2022/08/18 03:45:35;;;;;;;15.00;13.10;;;;;;;18.25;84.36;99906.98;130378;1268;108845;-75
2022/08/18 03:48:45;;;;;;;14.00;12.60;;;;;;;18.19;84.55;99909.08;130351;1268;108004;-75
2022/08/18 03:51:50;;;;;;;13.80;12.40;;;;;;;18.21;84.65;99917.02;130350;1268;109196;-75
2022/08/18 03:54:56;;;;;;;14.50;12.20;;;;;;;18.28;84.74;99916.85;130399;1268;107809;-74
2022/08/18 03:58:02;;;;;;;14.70;13.20;;;;;;;18.36;84.71;99920.25;130329;1268;108924;-74
2022/08/18 04:01:10;;;;;;;15.90;13.20;;;;;;;18.47;84.61;99914.55;130391;1268;108678;-75
2022/08/18 04:04:19;;;;;;;16.00;13.10;;;;;;;18.54;84.58;99915.53;130322;1268;109990;-75
2022/08/18 04:07:24;;;;;;;14.20;12.10;;;;;;;18.58;84.67;99911.36;130405;1268;108773;-75
2022/08/18 04:10:30;;;;;;;13.70;12.30;;;;;;;18.67;84.56;99915.35;130368;1267;108743;-73
2022/08/18 04:13:36;;;;;;;15.10;13.10;;;;;;;18.74;84.67;99917.11;130385;1267;108833;-74
2022/08/18 04:16:42;;;;;;;14.50;12.90;;;;;;;18.80;84.64;99917.11;130374;1268;109770;-74
2022/08/18 04:19:48;;;;;;;14.10;12.60;;;;;;;18.83;84.56;99911.11;129266;1268;1533931;-75
2022/08/18 04:22:55;;;;;;;15.00;12.20;;;;;;;18.83;84.74;99915.31;130309;1268;108738;-74
2022/08/18 04:26:01;;;;;;;15.40;11.50;;;;;;;18.85;84.81;99918.39;130331;1268;106991;-74
2022/08/18 04:29:08;;;;;;;13.20;11.90;;;;;;;18.89;84.87;99920.89;130417;1268;108497;-74
2022/08/18 04:32:14;;;;;;;14.50;13.00;;;;;;;18.93;85.11;99924.90;130467;1268;109043;-74
2022/08/18 04:35:21;;;;;;;14.90;13.30;;;;;;;19.03;85.10;99927.14;130370;1268;108777;-77
2022/08/18 04:38:26;;;;;;;13.40;12.00;;;;;;;19.14;85.14;99921.42;130390;1267;108328;-74
2022/08/18 04:41:31;;;;;;;13.10;11.70;;;;;;;19.28;85.31;99923.45;130384;1268;108758;-74
2022/08/18 04:44:37;;;;;;;13.80;12.10;;;;;;;19.45;85.30;99923.88;130482;1268;108708;-76
2022/08/18 04:47:43;;;;;;;13.70;12.40;;;;;;;19.64;85.30;99921.04;130407;1268;108755;-73
2022/08/18 04:50:48;;;;;;;15.70;14.10;;;;;;;19.82;85.29;99923.65;130344;1267;108727;-76
2022/08/18 04:57:17;;;;;;;12.50;11.20;;;;;;;20.13;85.26;99934.70;130473;1261;107918;-74
2022/08/18 05:00:23;;;;;;;13.50;12.10;;;;;;;20.30;85.39;99934.61;129979;1272;108851;-73
2022/08/18 05:03:28;;;;;;;14.30;12.30;;;;;;;20.50;85.45;99935.63;129939;1271;108895;-74
2022/08/18 05:06:35;;;;;;;15.40;13.80;;;;;;;20.70;85.46;99927.52;129905;1271;108810;-74
2022/08/18 05:09:41;;;;;;;17.50;14.40;;;;;;;20.92;85.55;99933.65;129691;1271;107598;-76
2022/08/18 05:12:48;;;;;;;15.90;14.20;;;;;;;21.12;85.69;99934.05;129899;1272;108847;-74
2022/08/18 05:16:02;;;;;;;17.40;14.90;;;;;;;21.37;85.67;99934.64;129957;1271;108749;-75
2022/08/18 05:19:10;;;;;;;18.10;16.30;;;;;;;21.66;85.46;99938.27;129988;1272;108813;-76
2022/08/18 05:22:18;;;;;;;17.90;15.60;;;;;;;21.89;85.30;99934.96;129952;1271;108778;-74
2022/08/18 05:25:23;;;;;;;16.90;15.00;;;;;;;22.10;84.90;99940.11;129913;1272;107596;-74
2022/08/18 05:28:29;;;;;;;15.30;13.90;;;;;;;22.29;84.89;99943.63;129919;1271;108762;-75
2022/08/18 05:31:35;;;;;;;13.70;12.30;;;;;;;22.52;84.48;99942.48;129927;1272;109024;-75
2022/08/18 05:34:40;;;;;;;17.50;15.40;;;;;;;22.76;84.10;99941.67;129941;1271;108961;-75
2022/08/18 05:37:57;;;;;;;18.30;16.50;;;;;;;22.96;83.93;99944.09;129942;1271;108779;-76
2022/08/18 05:41:08;;;;;;;15.70;14.10;;;;;;;23.14;83.88;99940.80;129915;1272;108651;-76
2022/08/18 05:44:16;;;;;;;11.70;10.60;;;;;;;23.28;83.57;99939.59;130151;1271;108773;-77
2022/08/18 05:47:26;;;;;;;13.60;12.20;;;;;;;23.41;83.04;99939.00;129920;1273;108828;-76
2022/08/18 05:50:35;;;;;;;13.10;11.70;;;;;;;23.56;82.64;99937.13;129903;1273;108563;-75
2022/08/18 05:57:09;;;;;;;15.40;13.90;;;;;;;23.84;82.04;99938.06;129928;1273;109029;-75
2022/08/18 06:00:16;;;;;;;14.80;13.30;;;;;;;23.93;82.10;99940.37;129840;1273;108884;-74
2022/08/18 06:03:25;;;;;;;12.80;11.40;;;;;;;23.99;81.94;99936.54;129917;1272;108956;-76
2022/08/18 06:06:32;;;;;;;17.30;13.10;;;;;;;24.07;81.64;99932.91;129968;1272;109190;-76
2022/08/18 06:09:45;;;;;;;19.20;15.00;;;;;;;24.17;81.58;99933.36;130256;1273;109059;-76
2022/08/18 06:12:53;;;;;;;17.50;15.70;;;;;;;24.20;81.45;99936.20;130045;1272;108748;-78
2022/08/18 06:16:05;;;;;;;15.50;14.00;;;;;;;24.17;81.54;99938.88;129985;1273;108747;-78
2022/08/18 06:19:18;;;;;;;;;;;;;;;24.21;81.56;99939.25;130067;1273;108739;-78
2022/08/18 06:22:35;;;;;;;15.00;13.40;;;;;;;24.26;81.38;99941.08;129977;1272;107342;-78
2022/08/18 06:25:54;;;;;;;17.50;14.30;;;;;;;24.28;81.20;99941.42;130007;1273;107458;-79
2022/08/18 06:29:09;;;;;;;14.80;13.30;;;;;;;24.26;81.00;99938.73;130020;1273;108914;-79
2022/08/18 06:32:23;;;;;;;15.00;13.50;;;;;;;24.28;81.31;99943.23;129968;1272;108792;-78
2022/08/18 06:35:36;;;;;;;15.30;13.50;;;;;;;24.37;81.03;99941.16;129937;1273;108800;-78
2022/08/18 06:38:49;;;;;;;16.60;13.70;;;;;;;24.45;81.16;99939.20;129860;1273;108679;-78
2022/08/18 06:41:54;;;;;;;16.40;14.70;;;;;;;24.57;81.00;99937.32;129957;1273;108729;-79
2022/08/18 06:45:07;;;;;;;16.30;14.70;;;;;;;24.63;80.63;99934.02;129934;1273;108872;-78
2022/08/18 06:48:20;;;;;;;18.60;16.20;;;;;;;24.67;80.48;99931.00;129824;1272;108756;-78
2022/08/18 06:51:28;;;;;;;18.60;16.60;;;;;;;24.79;80.48;99933.54;129995;1272;108712;-80
2022/08/18 06:54:42;;;;;;;20.10;15.80;;;;;;;24.88;80.07;99937.42;129882;1273;108914;-78
2022/08/18 06:57:57;;;;;;;15.80;14.30;;;;;;;24.98;79.70;99941.08;129940;1272;109703;-80
2022/08/18 07:01:07;;;;;;;16.00;14.40;;;;;;;25.08;79.54;99946.31;129989;1271;108637;-80
2022/08/18 07:04:33;;;;;;;14.30;11.60;;;;;;;25.16;79.18;99949.09;130019;1271;108625;-80
2022/08/18 07:07:40;;;;;;;14.20;11.90;;;;;;;25.23;78.71;99951.25;130092;1271;109039;-80
2022/08/18 07:10:48;;;;;;;14.80;12.10;;;;;;;25.31;78.52;99948.27;130012;1271;108861;-80
2022/08/18 07:13:57;;;;;;;17.50;15.40;;;;;;;25.38;78.56;99951.77;130049;1271;108686;-80
2022/08/18 07:17:12;;;;;;;16.20;12.30;;;;;;;25.45;78.32;99954.48;129987;1271;107238;-80
2022/08/18 07:20:24;;;;;;;13.30;12.00;;;;;;;25.53;78.53;99956.71;129977;1271;108970;-80
2022/08/18 07:23:37;;;;;;;15.70;11.30;;;;;;;25.58;78.05;99956.27;129973;1271;108957;-80
2022/08/18 07:27:00;;;;;;;12.70;11.50;;;;;;;25.61;78.16;99963.36;129996;1271;108824;-81
2022/08/18 07:30:10;;;;;;;13.50;11.40;;;;;;;25.69;77.77;99970.14;130158;1271;108669;-80
2022/08/18 07:33:22;;;;;;;12.20;10.90;;;;;;;25.78;77.42;99975.40;129954;1271;108649;-80
2022/08/18 07:36:32;;;;;;;12.50;11.20;;;;;;;25.87;77.30;99979.75;129987;1271;107774;-80
2022/08/18 07:39:45;;;;;;;12.60;11.30;;;;;;;25.95;77.02;99974.80;129898;1271;108877;-80
2022/08/18 07:42:56;;;;;;;11.20;10.10;;;;;;;26.03;77.22;99971.15;129978;1271;108638;-80
2022/08/18 07:46:09;;;;;;;12.10;10.80;;;;;;;26.11;76.48;99965.20;130051;1271;108781;-80
2022/08/18 07:49:21;;;;;;;12.30;11.00;;;;;;;26.20;76.28;99963.83;130033;1271;108802;-79
2022/08/18 07:52:31;;;;;;;13.90;11.40;;;;;;;26.31;75.76;99962.58;130103;1271;108895;-80
2022/08/18 07:55:40;;;;;;;11.90;10.80;;;;;;;26.40;75.63;99960.28;129961;1271;108651;-80
2022/08/18 07:58:51;;;;;;;12.40;10.40;;;;;;;26.44;75.16;99961.17;129961;1271;108195;-80
2022/08/18 08:02:18;;;;;;;11.40;10.30;;;;;;;26.50;75.12;99962.73;130224;1271;108833;-80
2022/08/18 08:05:40;;;;;;;11.40;10.30;;;;;;;26.59;74.32;99959.95;129763;1273;108820;-80
2022/08/18 08:08:51;;;;;;;14.20;11.50;;;;;;;26.66;73.65;99962.56;129589;1273;108787;-80
2022/08/18 08:12:02;;;;;;;13.00;10.60;;;;;;;26.68;73.61;99964.11;129697;1273;108963;-78
2022/08/18 08:15:17;;;;;;;10.90;9.80;;;;;;;26.72;73.31;99968.95;129760;1273;108674;-78
2022/08/18 08:18:34;;;;;;;11.50;10.30;;;;;;;26.76;72.90;99970.45;129811;1273;108913;-79
2022/08/18 08:21:44;;;;;;;11.40;10.40;;;;;;;26.81;72.63;99971.98;129770;1273;108619;-78
2022/08/18 08:25:00;;;;;;;11.80;10.70;;;;;;;26.87;72.23;99972.11;129703;1273;108608;-81
2022/08/18 08:28:15;;;;;;;12.20;10.60;;;;;;;26.88;71.53;99975.41;129713;1273;106972;-79
2022/08/18 08:31:29;;;;;;;11.40;10.20;;;;;;;26.90;70.70;99974.16;129669;1273;109146;-80
2022/08/18 08:34:45;;;;;;;11.50;10.30;;;;;;;26.85;70.98;99970.80;129730;1273;108661;-80
2022/08/18 08:37:54;;;;;;;11.20;10.10;;;;;;;26.84;71.55;99971.23;129689;1273;108493;-80
2022/08/18 08:41:06;;;;;;;12.00;10.80;;;;;;;26.90;71.10;99970.11;129989;1271;109011;-80
2022/08/18 08:44:17;;;;;;;10.60;9.70;;;;;;;26.89;70.04;99966.48;129910;1271;109808;-80
2022/08/18 08:47:31;;;;;;;11.80;10.60;;;;;;;26.82;69.64;99964.49;130038;1271;108507;-81
2022/08/18 08:50:44;;;;;;;11.70;10.20;;;;;;;26.72;69.19;99967.35;130043;1271;108714;-81
2022/08/18 08:53:55;;;;;;;12.10;10.50;;;;;;;26.70;69.66;99963.85;129948;1271;108638;-81
2022/08/18 08:57:03;;;;;;;11.60;10.50;;;;;;;26.73;69.75;99962.98;130024;1272;108631;-81
2022/08/18 09:00:13;;;;;;;11.60;10.50;;;;;;;26.80;69.75;99959.05;130073;1273;109760;-81
2022/08/18 09:03:31;;;;;;;11.40;10.30;;;;;;;26.81;68.71;99959.34;129921;1272;109782;-82
2022/08/18 09:06:46;;;;;;;11.20;10.10;;;;;;;26.85;69.08;99962.76;129893;1272;108812;-81
2022/08/18 09:10:15;;;;;;;11.90;10.40;;;;;;;26.87;68.20;99960.29;129989;1273;108901;-81
2022/08/18 09:13:48;;;;;;;12.40;10.30;;;;;;;26.88;67.95;99953.73;130247;1273;108803;-81
2022/08/18 09:17:25;;;;;;;11.60;10.40;;;;;;;26.89;66.81;99954.55;130065;1272;108771;-81
2022/08/18 09:20:48;;;;;;;10.90;9.70;;;;;;;26.89;67.50;99955.16;129859;1273;108678;-81
2022/08/18 09:24:09;;;;;;;10.40;9.20;;;;;;;26.93;67.45;99953.85;129893;1273;109903;-79
2022/08/18 09:27:43;;;;;;;10.80;9.70;;;;;;;26.98;67.22;99949.54;129887;1273;108679;-81
2022/08/18 09:31:16;;;;;;;10.00;9.00;;;;;;;27.00;66.18;99953.11;129749;1273;108123;-81
2022/08/18 09:34:50;;;;;;;9.90;8.60;;;;;;;27.04;66.59;99954.65;129683;1273;109622;-81
2022/08/18 09:41:32;;;;;;;9.70;8.80;;;;;;;27.18;66.56;99957.91;129925;1271;107069;-81
2022/08/18 09:45:00;;;;;;;11.10;8.80;;;;;;;27.25;66.58;99949.90;129965;1271;109103;-81
2022/08/18 09:48:25;;;;;;;8.80;8.00;;;;;;;27.33;66.12;99951.90;129962;1271;108995;-81
2022/08/18 09:51:39;;;;;;;9.60;8.60;;;;;;;27.36;65.83;99958.14;129983;1271;108988;-81
2022/08/18 09:54:53;;;;;;;9.50;8.40;;;;;;;27.40;65.71;99957.71;130020;1271;108930;-82
2022/08/18 09:58:18;;;;;;;10.80;8.20;;;;;;;27.46;65.49;99955.36;129929;1271;108613;-80
2022/08/18 10:01:38;;;;;;;9.20;8.20;;;;;;;27.56;65.30;99955.54;130027;1271;108732;-81
2022/08/18 10:04:49;;;;;;;8.70;7.90;;;;;;;27.65;65.19;99956.14;130026;1271;108949;-82
2022/08/18 10:08:19;;;;;;;8.30;7.60;;;;;;;27.68;64.50;99953.67;129992;1271;108783;-80
2022/08/18 10:11:39;;;;;;;9.20;8.20;;;;;;;27.67;64.29;99952.25;129930;1273;109837;-80
2022/08/18 10:15:02;;;;;;;9.00;8.10;;;;;;;27.70;64.35;99953.89;130012;1273;108713;-80
2022/08/18 10:18:33;;;;;;;8.50;7.70;;;;;;;27.62;63.95;99952.80;130072;1273;108702;-81
2022/08/18 10:22:03;;;;;;;8.10;7.30;;;;;;;27.51;63.43;99950.33;130141;1272;108626;-80
2022/08/18 10:25:13;;;;;;;8.40;7.60;;;;;;;27.52;62.78;99946.65;130069;1273;108530;-80
2022/08/18 10:28:53;;;;;;;9.10;8.00;;;;;;;27.58;63.16;99948.79;130149;1271;109541;-79
2022/08/18 10:32:24;;;;;;;8.90;7.70;;;;;;;27.70;63.20;99955.33;130139;1271;108951;-79
2022/08/18 10:35:56;;;;;;;9.50;8.30;;;;;;;27.80;62.26;99954.83;129989;1271;108856;-79
2022/08/18 10:39:06;;;;;;;9.70;7.90;;;;;;;27.89;62.99;99950.17;129932;1271;108564;-79
2022/08/18 10:42:19;;;;;;;8.50;7.20;;;;;;;27.99;62.38;99945.13;129970;1271;108835;-79
2022/08/18 10:45:29;;;;;;;8.90;7.40;;;;;;;28.06;62.36;99947.31;129919;1271;108956;-79
2022/08/18 10:48:37;;;;;;;7.90;7.10;;;;;;;28.08;62.00;99947.91;129892;1271;108678;-79
2022/08/18 10:51:55;;;;;;;10.10;7.30;;;;;;;28.14;61.76;99945.98;129947;1271;106850;-79
2022/08/18 10:55:13;;;;;;;10.70;7.70;;;;;;;28.08;60.85;99947.04;129980;1271;108901;-79
2022/08/18 10:58:52;;;;;;;7.80;7.00;;;;;;;28.06;61.59;99941.98;129954;1271;108418;-79
2022/08/18 11:02:34;;;;;;;8.20;7.40;;;;;;;28.16;61.25;99940.50;129882;1271;107694;-79
2022/08/18 11:05:41;;;;;;;8.10;6.90;;;;;;;28.25;61.22;99941.67;129534;1274;108865;-81
2022/08/18 11:08:50;;;;;;;10.20;7.70;;;;;;;28.28;60.97;99932.34;129700;1274;108506;-79
2022/08/18 11:11:58;;;;;;;7.80;7.10;;;;;;;28.31;60.95;99933.05;129601;1274;107836;-79
2022/08/18 11:15:16;;;;;;;9.40;7.50;;;;;;;28.35;60.73;99923.48;129524;1274;108900;-79
2022/08/18 11:18:32;;;;;;;7.90;7.10;;;;;;;28.45;61.41;99928.33;129606;1275;108900;-80
2022/08/18 11:21:42;;;;;;;8.90;7.50;;;;;;;28.41;60.48;99922.74;129638;1274;108316;-79
2022/08/18 11:24:48;;;;;;;9.10;7.30;;;;;;;28.34;60.22;99926.46;129874;1271;108169;-79
2022/08/18 11:27:55;;;;;;;8.30;7.50;;;;;;;28.17;60.20;99925.58;129952;1271;109714;-82
2022/08/18 11:31:01;;;;;;;8.50;7.60;;;;;;;28.17;60.81;99923.80;129986;1271;108250;-81
2022/08/18 11:34:11;;;;;;;8.40;7.70;;;;;;;28.32;60.54;99919.98;129912;1271;108539;-81
2022/08/18 11:37:26;;;;;;;8.90;7.90;;;;;;;28.33;59.62;99923.77;129925;1271;109755;-78
2022/08/18 11:40:41;;;;;;;7.60;6.90;;;;;;;28.16;59.09;99920.02;129875;1271;108719;-78
2022/08/18 11:43:47;;;;;;;7.10;6.50;;;;;;;28.02;59.49;99913.80;130098;1271;105829;-81
2022/08/18 11:47:07;;;;;;;10.50;6.80;;;;;;;27.98;58.57;99911.57;130088;1271;108653;-81
2022/08/18 11:50:30;;;;;;;7.80;7.20;;;;;;;27.98;59.07;99906.73;129853;1270;108794;-81
2022/08/18 11:53:50;;;;;;;7.80;7.00;;;;;;;27.99;59.75;99906.73;129893;1271;108682;-80
2022/08/18 11:57:35;;;;;;;8.30;7.50;;;;;;;28.04;59.63;99910.02;129763;1273;109016;-79
2022/08/18 12:00:54;;;;;;;8.40;7.60;;;;;;;28.04;59.43;99908.25;129767;1273;108704;-80
2022/08/18 12:04:09;;;;;;;8.80;7.50;;;;;;;28.07;58.86;99910.08;129869;1273;108871;-81
2022/08/18 12:07:26;;;;;;;10.00;8.10;;;;;;;28.16;58.70;99907.41;129853;1273;108520;-81
2022/08/18 12:10:32;;;;;;;11.90;7.80;;;;;;;28.11;59.19;99904.02;129969;1271;108849;-79
2022/08/18 12:13:37;;;;;;;8.50;7.60;;;;;;;27.94;59.61;99903.29;130126;1271;108630;-81
2022/08/18 12:16:43;;;;;;;8.40;6.90;;;;;;;27.87;58.90;99902.39;130051;1271;109160;-81
2022/08/18 12:19:49;;;;;;;8.50;7.60;;;;;;;27.91;58.29;99894.58;130150;1271;108997;-81
2022/08/18 12:22:57;;;;;;;8.20;7.40;;;;;;;27.99;58.69;99890.34;130098;1271;109988;-81
2022/08/18 12:26:03;;;;;;;8.80;7.90;;;;;;;28.00;58.73;99885.17;130058;1271;109177;-81
2022/08/18 12:29:08;;;;;;;8.80;7.80;;;;;;;27.86;58.36;99881.39;130099;1271;108876;-81
2022/08/18 12:32:14;;;;;;;8.60;7.40;;;;;;;27.89;58.31;99879.59;130057;1271;108859;-80
2022/08/18 12:35:19;;;;;;;8.50;7.70;;;;;;;27.96;57.75;99882.05;129964;1271;108819;-80
2022/08/18 12:38:26;;;;;;;8.70;7.80;;;;;;;28.04;58.45;99879.19;130063;1271;108721;-81
2022/08/18 12:41:31;;;;;;;8.00;7.30;;;;;;;28.07;58.48;99876.05;130093;1271;108971;-80
2022/08/18 12:44:37;;;;;;;8.40;7.60;;;;;;;28.13;57.57;99874.45;130042;1271;108659;-81
2022/08/18 12:47:42;;;;;;;8.10;7.30;;;;;;;28.08;58.28;99875.11;130107;1271;109333;-80
2022/08/18 12:50:48;;;;;;;9.10;7.80;;;;;;;28.03;58.18;99872.88;130044;1271;108843;-79
2022/08/18 12:53:53;;;;;;;9.30;7.80;;;;;;;28.02;57.24;99866.36;130086;1271;107815;-79
2022/08/18 12:56:59;;;;;;;8.60;7.70;;;;;;;27.97;57.71;99858.25;129957;1271;108771;-80
2022/08/18 13:00:07;;;;;;;8.40;7.30;;;;;;;28.01;58.14;99856.59;129946;1271;108824;-80
2022/08/18 13:03:13;;;;;;;7.90;7.20;;;;;;;28.03;57.47;99854.39;129984;1271;109615;-79
2022/08/18 13:06:19;;;;;;;8.20;7.30;;;;;;;28.05;56.92;99855.27;129957;1271;109596;-79
2022/08/18 13:09:25;;;;;;;7.80;7.10;;;;;;;28.08;57.23;99846.59;130081;1271;108010;-80
2022/08/18 13:12:30;;;;;;;9.00;7.30;;;;;;;28.17;57.33;99840.41;129943;1271;108975;-79
2022/08/18 13:15:36;;;;;;;7.90;7.20;;;;;;;28.29;57.74;99830.05;129957;1271;108856;-79
2022/08/18 13:18:42;;;;;;;7.60;6.90;;;;;;;28.45;57.64;99823.65;129884;1271;108941;-80
2022/08/18 13:21:47;;;;;;;7.90;7.10;;;;;;;28.50;57.35;99822.11;129947;1271;108764;-80
2022/08/18 13:24:53;;;;;;;8.30;7.50;;;;;;;28.47;57.12;99827.71;129974;1271;108885;-80
2022/08/18 13:27:59;;;;;;;7.70;7.00;;;;;;;28.37;57.43;99821.23;129937;1273;108860;-80
2022/08/18 13:31:05;;;;;;;9.00;7.60;;;;;;;28.27;57.45;99820.46;129999;1273;108871;-80
2022/08/18 13:34:12;;;;;;;8.50;7.20;;;;;;;28.21;57.45;99821.63;129826;1273;108704;-79
2022/08/18 13:37:17;;;;;;;7.90;7.10;;;;;;;28.15;56.92;99819.47;129929;1273;107628;-79
2022/08/18 13:40:22;;;;;;;8.80;7.90;;;;;;;28.20;56.59;99824.33;129881;1273;108989;-79
2022/08/18 13:43:32;;;;;;;8.10;7.30;;;;;;;28.21;56.76;99822.61;129893;1273;107901;-79
2022/08/18 13:46:44;;;;;;;7.70;7.00;;;;;;;28.24;57.33;99825.14;129904;1272;108734;-79
2022/08/18 13:49:50;;;;;;;8.10;7.20;;;;;;;28.19;57.44;99825.09;129900;1273;108885;-79
2022/08/18 13:52:59;;;;;;;8.30;7.30;;;;;;;28.23;56.99;99821.09;129898;1273;108897;-79
2022/08/18 13:56:05;;;;;;;8.00;7.20;;;;;;;28.17;57.26;99824.06;129952;1273;108882;-79
2022/08/18 13:59:11;;;;;;;8.80;7.60;;;;;;;28.12;57.02;99832.63;129988;1271;109723;-79
2022/08/18 14:02:17;;;;;;;9.20;7.70;;;;;;;28.09;57.36;99829.80;130070;1271;108706;-79
2022/08/18 14:05:23;;;;;;;7.80;7.10;;;;;;;28.00;57.48;99829.17;130081;1271;107586;-80
2022/08/18 14:08:28;;;;;;;8.30;7.20;;;;;;;27.91;57.37;99832.27;130083;1271;108808;-79
2022/08/18 14:11:37;;;;;;;8.30;7.50;;;;;;;27.85;57.44;99836.92;130063;1271;108746;-79
2022/08/18 14:14:42;;;;;;;8.40;7.40;;;;;;;27.81;56.63;99833.70;130018;1270;108958;-79
2022/08/18 14:17:48;;;;;;;8.90;7.60;;;;;;;27.82;56.72;99835.61;130076;1270;109756;-81
2022/08/18 14:27:41;;;;;;;8.30;7.30;;;;;;;27.81;57.23;99858.59;130005;1270;108752;-80
2022/08/18 14:30:47;;;;;;;7.90;7.20;;;;;;;27.81;57.22;99862.48;130301;1270;108306;-81
2022/08/18 14:33:53;;;;;;;7.40;6.80;;;;;;;27.82;57.36;99858.80;130018;1270;108797;-81
2022/08/18 14:36:58;;;;;;;8.30;7.40;;;;;;;27.87;57.42;99850.69;130250;1270;108939;-82
2022/08/18 14:40:04;;;;;;;8.00;7.10;;;;;;;27.94;57.29;99848.56;130161;1270;107926;-82
2022/08/18 14:43:10;;;;;;;7.90;7.10;;;;;;;27.98;56.82;99846.63;130267;1270;107816;-82
2022/08/18 14:46:15;;;;;;;8.00;6.50;;;;;;;28.05;57.01;99839.86;130328;1270;108705;-81